Grantsdale, Montana
Current Conditions -  °F | °C
As of 6:53 AM on Sunday 23 Nov 2014 (Local Time) from KMSO Reporting Station
Overcast Overcast  
Wind Chill: 31°   Ceiling: 5000
Heat Index: 36°   Visibility: 10mi
Dew Point: 24°   Wind: 6mph
Humidity: 62%   Direction: 360°N
Pressure: 30.07"   Gusts: NA
Location:  46.2°N, 114.13°W
Report Text: KMSO 231353Z 36005KT 10SM BKN050 OVC065 02/M04 A3007 RMK AO2 SLP207 T00221044
Loading
Personal Weather Stations






























Interactive Weather Map New forecast layout! Learn more

10-Day Weather Forecast

Advertisements
Track Severe Weather on mobile